sensor_id;sensor_type;location;lat;lon;timestamp;pressure;altitude;pressure_sealevel;temperature;humidity
78623;BME280;67943;54.412;9.502;2024-03-22T00:04:55;101605.66;;;9.70;80.25
78623;BME280;67943;54.412;9.502;2024-03-22T00:09:56;101592.50;;;9.75;80.10
78623;BME280;67943;54.412;9.502;2024-03-22T00:14:59;101568.00;;;9.67;80.40
78623;BME280;67943;54.412;9.502;2024-03-22T00:20:00;101545.97;;;9.85;79.52
78623;BME280;67943;54.412;9.502;2024-03-22T00:25:01;101551.31;;;9.72;80.13
78623;BME280;67943;54.412;9.502;2024-03-22T00:30:05;101526.78;;;9.78;79.97
78623;BME280;67943;54.412;9.502;2024-03-22T00:35:06;101521.56;;;9.69;80.66
78623;BME280;67943;54.412;9.502;2024-03-22T00:40:08;101501.47;;;9.59;80.99
78623;BME280;67943;54.412;9.502;2024-03-22T00:45:11;101498.81;;;9.65;81.10
78623;BME280;67943;54.412;9.502;2024-03-22T00:50:12;101495.22;;;9.78;80.19
78623;BME280;67943;54.412;9.502;2024-03-22T00:55:13;101503.16;;;9.69;80.51
78623;BME280;67943;54.412;9.502;2024-03-22T01:00:17;101493.59;;;9.57;81.84
78623;BME280;67943;54.412;9.502;2024-03-22T01:05:18;101490.97;;;9.56;82.09
78623;BME280;67943;54.412;9.502;2024-03-22T01:10:19;101480.44;;;9.62;81.51
78623;BME280;67943;54.412;9.502;2024-03-22T01:15:22;101463.63;;;9.84;80.78
78623;BME280;67943;54.412;9.502;2024-03-22T01:20:23;101462.75;;;9.82;81.11
78623;BME280;67943;54.412;9.502;2024-03-22T01:25:24;101467.19;;;9.78;81.03
78623;BME280;67943;54.412;9.502;2024-03-22T01:30:27;101449.59;;;9.85;80.91
78623;BME280;67943;54.412;9.502;2024-03-22T01:35:28;101445.19;;;9.87;80.98
78623;BME280;67943;54.412;9.502;2024-03-22T01:40:29;101433.78;;;9.90;81.30
78623;BME280;67943;54.412;9.502;2024-03-22T01:45:33;101431.97;;;9.98;81.12
78623;BME280;67943;54.412;9.502;2024-03-22T01:50:34;101421.53;;;9.87;82.01
78623;BME280;67943;54.412;9.502;2024-03-22T01:55:35;101416.41;;;9.75;83.04
78623;BME280;67943;54.412;9.502;2024-03-22T02:00:38;101419.63;;;10.09;81.33
78623;BME280;67943;54.412;9.502;2024-03-22T02:05:39;101424.03;;;10.05;81.72
78623;BME280;67943;54.412;9.502;2024-03-22T02:10:40;101408.28;;;10.01;81.95
78623;BME280;67943;54.412;9.502;2024-03-22T02:15:43;101412.44;;;10.28;81.11
78623;BME280;67943;54.412;9.502;2024-03-22T02:20:43;101396.63;;;10.29;81.49
78623;BME280;67943;54.412;9.502;2024-03-22T02:25:47;101390.56;;;10.23;81.39
78623;BME280;67943;54.412;9.502;2024-03-22T02:30:48;101385.16;;;10.38;80.88
78623;BME280;67943;54.412;9.502;2024-03-22T02:35:49;101377.94;;;10.52;80.72
78623;BME280;67943;54.412;9.502;2024-03-22T02:40:53;101379.72;;;10.50;80.39
78623;BME280;67943;54.412;9.502;2024-03-22T02:45:54;101371.78;;;10.55;80.45
78623;BME280;67943;54.412;9.502;2024-03-22T02:50:55;101361.47;;;10.38;81.16
78623;BME280;67943;54.412;9.502;2024-03-22T02:55:59;101358.53;;;10.62;80.65
78623;BME280;67943;54.412;9.502;2024-03-22T03:01:00;101338.56;;;10.46;81.07
78623;BME280;67943;54.412;9.502;2024-03-22T03:06:01;101329.66;;;10.56;80.93
78623;BME280;67943;54.412;9.502;2024-03-22T03:11:04;101323.47;;;10.60;80.62
78623;BME280;67943;54.412;9.502;2024-03-22T03:16:05;101322.66;;;10.55;81.15
78623;BME280;67943;54.412;9.502;2024-03-22T03:21:06;101310.25;;;10.65;81.11
78623;BME280;67943;54.412;9.502;2024-03-22T03:26:09;101298.09;;;10.56;81.85
78623;BME280;67943;54.412;9.502;2024-03-22T03:31:10;101287.56;;;10.56;81.99
78623;BME280;67943;54.412;9.502;2024-03-22T03:36:11;101290.31;;;10.45;82.54
78623;BME280;67943;54.412;9.502;2024-03-22T03:41:14;101281.28;;;10.66;82.26
78623;BME280;67943;54.412;9.502;2024-03-22T03:46:14;101272.53;;;10.64;82.42
78623;BME280;67943;54.412;9.502;2024-03-22T03:51:15;101267.28;;;10.64;82.97
78623;BME280;67943;54.412;9.502;2024-03-22T03:56:18;101272.53;;;10.64;83.60
78623;BME280;67943;54.412;9.502;2024-03-22T04:01:19;101266.53;;;10.55;86.14
78623;BME280;67943;54.412;9.502;2024-03-22T04:06:20;101254.31;;;10.49;88.40
78623;BME280;67943;54.412;9.502;2024-03-22T04:11:23;101244.72;;;10.45;89.37
78623;BME280;67943;54.412;9.502;2024-03-22T04:16:24;101243.13;;;10.35;90.92
78623;BME280;67943;54.412;9.502;2024-03-22T04:21:24;101235.22;;;10.36;91.35
78623;BME280;67943;54.412;9.502;2024-03-22T04:26:28;101209.06;;;10.24;93.40
78623;BME280;67943;54.412;9.502;2024-03-22T04:31:28;101206.38;;;10.29;93.47
78623;BME280;67943;54.412;9.502;2024-03-22T04:36:29;101202.78;;;10.36;93.35
78623;BME280;67943;54.412;9.502;2024-03-22T04:41:32;101201.94;;;10.34;94.51
78623;BME280;67943;54.412;9.502;2024-03-22T04:46:33;101209.88;;;10.31;94.69
78623;BME280;67943;54.412;9.502;2024-03-22T04:51:34;101196.66;;;10.35;94.45
78623;BME280;67943;54.412;9.502;2024-03-22T04:56:37;101182.50;;;10.42;94.64
78623;BME280;67943;54.412;9.502;2024-03-22T05:01:37;101174.16;;;10.11;97.61
78623;BME280;67943;54.412;9.502;2024-03-22T05:06:38;101179.38;;;10.13;97.57
78623;BME280;67943;54.412;9.502;2024-03-22T05:11:41;101191.59;;;10.20;97.48
78623;BME280;67943;54.412;9.502;2024-03-22T05:16:42;101184.59;;;10.18;97.88
78623;BME280;67943;54.412;9.502;2024-03-22T05:21:43;101162.00;;;10.04;98.44
78623;BME280;67943;54.412;9.502;2024-03-22T05:26:46;101158.06;;;10.36;96.77
78623;BME280;67943;54.412;9.502;2024-03-22T05:31:48;101175.09;;;10.07;98.10
78623;BME280;67943;54.412;9.502;2024-03-22T05:36:49;101154.63;;;10.32;97.25
78623;BME280;67943;54.412;9.502;2024-03-22T05:41:53;101169.66;;;10.23;97.44
78623;BME280;67943;54.412;9.502;2024-03-22T05:46:54;101161.75;;;10.24;97.89
78623;BME280;67943;54.412;9.502;2024-03-22T05:51:55;101155.59;;;10.25;97.93
78623;BME280;67943;54.412;9.502;2024-03-22T05:56:58;101158.38;;;10.11;99.25
78623;BME280;67943;54.412;9.502;2024-03-22T06:01:59;101127.53;;;10.26;97.92
78623;BME280;67943;54.412;9.502;2024-03-22T06:07:00;101120.59;;;10.19;98.26
78623;BME280;67943;54.412;9.502;2024-03-22T06:12:04;101102.19;;;10.19;98.08
78623;BME280;67943;54.412;9.502;2024-03-22T06:17:05;101101.34;;;10.16;98.67
78623;BME280;67943;54.412;9.502;2024-03-22T06:22:06;101111.66;;;10.32;97.37
78623;BME280;67943;54.412;9.502;2024-03-22T06:27:09;101097.81;;;10.21;98.79
78623;BME280;67943;54.412;9.502;2024-03-22T06:32:10;101087.34;;;10.14;98.43
78623;BME280;67943;54.412;9.502;2024-03-22T06:37:10;101087.28;;;10.21;98.67
78623;BME280;67943;54.412;9.502;2024-03-22T06:42:13;101087.06;;;10.36;97.85
78623;BME280;67943;54.412;9.502;2024-03-22T06:47:14;101076.59;;;10.33;97.10
78623;BME280;67943;54.412;9.502;2024-03-22T06:52:15;101077.69;;;10.15;98.42
78623;BME280;67943;54.412;9.502;2024-03-22T06:57:18;101071.47;;;10.24;97.83
78623;BME280;67943;54.412;9.502;2024-03-22T07:02:19;101099.34;;;10.34;96.96
78623;BME280;67943;54.412;9.502;2024-03-22T07:07:20;101090.94;;;10.10;97.91
78623;BME280;67943;54.412;9.502;2024-03-22T07:12:23;101077.81;;;10.09;98.40
78623;BME280;67943;54.412;9.502;2024-03-22T07:17:24;101062.19;;;9.97;99.19
78623;BME280;67943;54.412;9.502;2024-03-22T07:22:24;101064.56;;;10.13;98.04
78623;BME280;67943;54.412;9.502;2024-03-22T07:27:28;101077.81;;;10.09;98.61
78623;BME280;67943;54.412;9.502;2024-03-22T07:32:29;101083.09;;;10.07;98.90
78623;BME280;67943;54.412;9.502;2024-03-22T07:37:29;101092.88;;;9.96;99.79
78623;BME280;67943;54.412;9.502;2024-03-22T07:42:33;101078.09;;;9.88;99.37
78623;BME280;67943;54.412;9.502;2024-03-22T07:47:33;101089.53;;;9.85;99.61
78623;BME280;67943;54.412;9.502;2024-03-22T07:52:34;101079.09;;;9.80;100.00
78623;BME280;67943;54.412;9.502;2024-03-22T07:57:37;101078.16;;;9.83;100.00
78623;BME280;67943;54.412;9.502;2024-03-22T08:02:38;101068.97;;;10.11;98.75
78623;BME280;67943;54.412;9.502;2024-03-22T08:07:39;101071.72;;;10.05;98.52
78623;BME280;67943;54.412;9.502;2024-03-22T08:12:42;101057.78;;;10.00;98.54
78623;BME280;67943;54.412;9.502;2024-03-22T08:17:43;101055.78;;;10.14;97.95
78623;BME280;67943;54.412;9.502;2024-03-22T08:22:43;101060.06;;;10.23;97.16
78623;BME280;67943;54.412;9.502;2024-03-22T08:27:47;101049.00;;;10.01;98.23
78623;BME280;67943;54.412;9.502;2024-03-22T08:32:47;101037.53;;;10.07;98.24
78623;BME280;67943;54.412;9.502;2024-03-22T08:37:48;101027.84;;;10.10;98.73
78623;BME280;67943;54.412;9.502;2024-03-22T08:42:51;101012.22;;;10.00;99.04
78623;BME280;67943;54.412;9.502;2024-03-22T08:47:52;101015.56;;;10.09;98.59
78623;BME280;67943;54.412;9.502;2024-03-22T08:52:53;101005.59;;;10.31;97.69
78623;BME280;67943;54.412;9.502;2024-03-22T08:57:56;101010.13;;;10.22;97.93
78623;BME280;67943;54.412;9.502;2024-03-22T09:02:57;101002.09;;;10.31;97.18
78623;BME280;67943;54.412;9.502;2024-03-22T09:07:57;101004.53;;;10.40;96.47
78623;BME280;67943;54.412;9.502;2024-03-22T09:13:00;101001.13;;;10.36;97.20
78623;BME280;67943;54.412;9.502;2024-03-22T09:18:01;100987.94;;;10.39;97.46
78623;BME280;67943;54.412;9.502;2024-03-22T09:23:02;100999.28;;;10.40;97.15
78623;BME280;67943;54.412;9.502;2024-03-22T09:28:06;101000.34;;;10.30;97.10
78623;BME280;67943;54.412;9.502;2024-03-22T09:33:07;101006.78;;;10.63;96.23
78623;BME280;67943;54.412;9.502;2024-03-22T09:38:08;100995.38;;;10.62;95.63
78623;BME280;67943;54.412;9.502;2024-03-22T09:43:12;100997.22;;;10.57;95.67
78623;BME280;67943;54.412;9.502;2024-03-22T09:48:13;100986.06;;;10.44;96.38
78623;BME280;67943;54.412;9.502;2024-03-22T09:53:18;100993.91;;;10.46;96.97
78623;BME280;67943;54.412;9.502;2024-03-22T09:58:21;100978.03;;;10.52;96.13
78623;BME280;67943;54.412;9.502;2024-03-22T10:03:22;100979.34;;;10.74;95.66
78623;BME280;67943;54.412;9.502;2024-03-22T10:08:22;100990.00;;;10.68;95.14
78623;BME280;67943;54.412;9.502;2024-03-22T10:13:25;101003.31;;;10.61;94.84
78623;BME280;67943;54.412;9.502;2024-03-22T10:18:26;100983.13;;;10.61;94.25
78623;BME280;67943;54.412;9.502;2024-03-22T10:23:27;100991.44;;;10.38;95.43
78623;BME280;67943;54.412;9.502;2024-03-22T10:28:30;100980.75;;;10.47;94.74
78623;BME280;67943;54.412;9.502;2024-03-22T10:33:31;100982.91;;;10.24;95.78
78623;BME280;67943;54.412;9.502;2024-03-22T10:38:32;100967.44;;;10.55;94.61
78623;BME280;67943;54.412;9.502;2024-03-22T10:43:37;100969.13;;;10.59;93.71
78623;BME280;67943;54.412;9.502;2024-03-22T10:48:39;100970.78;;;10.65;93.55
78623;BME280;67943;54.412;9.502;2024-03-22T10:53:43;100968.09;;;10.68;93.88
78623;BME280;67943;54.412;9.502;2024-03-22T10:58:48;100966.59;;;10.53;94.53
78623;BME280;67943;54.412;9.502;2024-03-22T11:03:49;100965.78;;;10.49;94.15
78623;BME280;67943;54.412;9.502;2024-03-22T11:08:50;100966.59;;;10.53;93.75
78623;BME280;67943;54.412;9.502;2024-03-22T11:13:54;100969.13;;;10.59;93.71
78623;BME280;67943;54.412;9.502;2024-03-22T11:18:55;100969.19;;;10.56;92.99
78623;BME280;67943;54.412;9.502;2024-03-22T11:23:56;100957.66;;;10.63;92.09
78623;BME280;67943;54.412;9.502;2024-03-22T11:28:59;100958.28;;;10.74;91.30
78623;BME280;67943;54.412;9.502;2024-03-22T11:34:00;100955.03;;;10.63;91.02
78623;BME280;67943;54.412;9.502;2024-03-22T11:39:01;100956.50;;;10.76;90.15
78623;BME280;67943;54.412;9.502;2024-03-22T11:44:04;100950.47;;;10.70;89.62
78623;BME280;67943;54.412;9.502;2024-03-22T11:49:06;100961.34;;;10.53;90.36
78623;BME280;67943;54.412;9.502;2024-03-22T11:54:06;100947.66;;;10.80;89.36
78623;BME280;67943;54.412;9.502;2024-03-22T11:59:10;100947.13;;;11.05;88.22
78623;BME280;67943;54.412;9.502;2024-03-22T12:04:11;100951.44;;;11.09;87.48
78623;BME280;67943;54.412;9.502;2024-03-22T12:09:12;100943.59;;;11.46;86.27
78623;BME280;67943;54.412;9.502;2024-03-22T12:14:15;100938.63;;;11.71;83.35
78623;BME280;67943;54.412;9.502;2024-03-22T12:19:16;100941.47;;;11.62;82.75
78623;BME280;67943;54.412;9.502;2024-03-22T12:24:16;100935.16;;;11.69;82.00
78623;BME280;67943;54.412;9.502;2024-03-22T12:29:20;100929.41;;;11.53;81.89
78623;BME280;67943;54.412;9.502;2024-03-22T12:34:21;100931.84;;;11.22;82.34
78623;BME280;67943;54.412;9.502;2024-03-22T12:39:21;100935.50;;;11.16;82.50
78623;BME280;67943;54.412;9.502;2024-03-22T12:44:25;100931.94;;;11.19;80.86
78623;BME280;67943;54.412;9.502;2024-03-22T12:49:25;100915.47;;;11.08;80.53
78623;BME280;67943;54.412;9.502;2024-03-22T12:54:26;100934.63;;;11.16;79.65
78623;BME280;67943;54.412;9.502;2024-03-22T12:59:29;100930.88;;;11.26;79.45
78623;BME280;67943;54.412;9.502;2024-03-22T13:04:30;100936.66;;;11.42;79.38
78623;BME280;67943;54.412;9.502;2024-03-22T13:09:31;100929.22;;;11.59;78.32
78623;BME280;67943;54.412;9.502;2024-03-22T13:14:34;100934.50;;;11.59;77.95
78623;BME280;67943;54.412;9.502;2024-03-22T13:19:35;100925.78;;;11.56;77.45
78623;BME280;67943;54.412;9.502;2024-03-22T13:24:35;100918.38;;;11.73;76.63
78623;BME280;67943;54.412;9.502;2024-03-22T13:29:39;100902.22;;;12.21;75.61
78623;BME280;67943;54.412;9.502;2024-03-22T13:34:40;100914.22;;;12.00;74.31
78623;BME280;67943;54.412;9.502;2024-03-22T13:39:40;100905.13;;;11.76;74.38
78623;BME280;67943;54.412;9.502;2024-03-22T13:44:43;100916.47;;;11.42;75.81
78623;BME280;67943;54.412;9.502;2024-03-22T13:49:44;100916.66;;;11.33;76.69
78623;BME280;67943;54.412;9.502;2024-03-22T13:54:45;100913.69;;;11.10;77.20
78623;BME280;67943;54.412;9.502;2024-03-22T13:59:49;100916.53;;;11.39;77.02
78623;BME280;67943;54.412;9.502;2024-03-22T14:04:49;100912.25;;;11.34;77.13
78623;BME280;67943;54.412;9.502;2024-03-22T14:09:50;100920.53;;;11.56;77.16
78623;BME280;67943;54.412;9.502;2024-03-22T14:14:53;100912.28;;;11.32;76.67
78623;BME280;67943;54.412;9.502;2024-03-22T14:19:54;100909.38;;;11.44;75.97
78623;BME280;67943;54.412;9.502;2024-03-22T14:24:55;100908.63;;;11.39;74.93
78623;BME280;67943;54.412;9.502;2024-03-22T14:29:58;100890.78;;;11.52;74.97
78623;BME280;67943;54.412;9.502;2024-03-22T14:34:59;100899.06;;;11.35;75.42
78623;BME280;67943;54.412;9.502;2024-03-22T14:40:00;100897.63;;;11.58;75.44
78623;BME280;67943;54.412;9.502;2024-03-22T14:45:04;100899.56;;;11.88;74.12
78623;BME280;67943;54.412;9.502;2024-03-22T14:50:05;100891.47;;;12.28;71.03
78623;BME280;67943;54.412;9.502;2024-03-22T14:55:07;100880.91;;;12.28;67.01
78623;BME280;67943;54.412;9.502;2024-03-22T15:00:11;100876.66;;;12.55;66.15
78623;BME280;67943;54.412;9.502;2024-03-22T15:05:11;100867.34;;;12.71;64.87
78623;BME280;67943;54.412;9.502;2024-03-22T15:10:12;100877.47;;;12.57;64.01
78623;BME280;67943;54.412;9.502;2024-03-22T15:15:15;100877.41;;;12.90;64.96
78623;BME280;67943;54.412;9.502;2024-03-22T15:20:16;100881.84;;;12.58;64.67
78623;BME280;67943;54.412;9.502;2024-03-22T15:25:17;100872.03;;;12.63;64.40
78623;BME280;67943;54.412;9.502;2024-03-22T15:30:20;100880.81;;;12.33;63.78
78623;BME280;67943;54.412;9.502;2024-03-22T15:35:21;100866.41;;;12.43;64.40
78623;BME280;67943;54.412;9.502;2024-03-22T15:40:21;100873.41;;;12.75;64.21
78623;BME280;67943;54.412;9.502;2024-03-22T15:45:25;100867.84;;;12.55;63.80
78623;BME280;67943;54.412;9.502;2024-03-22T15:50:26;100872.03;;;12.63;63.29
78623;BME280;67943;54.412;9.502;2024-03-22T15:55:27;100861.91;;;12.77;63.35
78623;BME280;67943;54.412;9.502;2024-03-22T16:00:30;100876.44;;;12.32;61.07
78623;BME280;67943;54.412;9.502;2024-03-22T16:05:31;100874.16;;;12.18;62.10
78623;BME280;67943;54.412;9.502;2024-03-22T16:10:32;100871.44;;;11.87;62.80
78623;BME280;67943;54.412;9.502;2024-03-22T16:15:35;100864.91;;;11.68;62.99
78623;BME280;67943;54.412;9.502;2024-03-22T16:20:36;100860.50;;;11.68;62.74
78623;BME280;67943;54.412;9.502;2024-03-22T16:25:37;100866.09;;;12.55;61.23
78623;BME280;67943;54.412;9.502;2024-03-22T16:30:40;100865.50;;;12.44;61.30
78623;BME280;67943;54.412;9.502;2024-03-22T16:35:41;100884.38;;;11.61;65.30
78623;BME280;67943;54.412;9.502;2024-03-22T16:40:42;100872.69;;;11.72;65.30
78623;BME280;67943;54.412;9.502;2024-03-22T16:45:45;100876.56;;;11.58;65.90
78623;BME280;67943;54.412;9.502;2024-03-22T16:50:46;100872.81;;;11.31;66.86
78623;BME280;67943;54.412;9.502;2024-03-22T16:55:47;100870.44;;;10.81;68.41
78623;BME280;67943;54.412;9.502;2024-03-22T17:00:50;100870.59;;;10.72;69.21
78623;BME280;67943;54.412;9.502;2024-03-22T17:05:51;100873.84;;;10.43;70.11
78623;BME280;67943;54.412;9.502;2024-03-22T17:10:51;100872.06;;;10.44;70.72
78623;BME280;67943;54.412;9.502;2024-03-22T17:15:55;100865.53;;;10.20;71.41
78623;BME280;67943;54.412;9.502;2024-03-22T17:20:55;100866.78;;;9.99;71.98
78623;BME280;67943;54.412;9.502;2024-03-22T17:25:59;100870.75;;;9.72;73.95
78623;BME280;67943;54.412;9.502;2024-03-22T17:31:03;100865.53;;;9.69;74.32
78623;BME280;67943;54.412;9.502;2024-03-22T17:36:04;100858.59;;;9.67;74.67
78623;BME280;67943;54.412;9.502;2024-03-22T17:41:05;100862.16;;;9.61;75.74
78623;BME280;67943;54.412;9.502;2024-03-22T17:46:08;100865.72;;;9.59;76.13
78623;BME280;67943;54.412;9.502;2024-03-22T17:51:08;100864.38;;;9.33;77.53
78623;BME280;67943;54.412;9.502;2024-03-22T17:56:09;100859.03;;;9.39;77.30
78623;BME280;67943;54.412;9.502;2024-03-22T18:01:13;100864.19;;;9.45;76.60
78623;BME280;67943;54.412;9.502;2024-03-22T18:06:13;100865.84;;;9.53;75.98
78623;BME280;67943;54.412;9.502;2024-03-22T18:11:14;100867.94;;;9.29;76.71
78623;BME280;67943;54.412;9.502;2024-03-22T18:16:17;100866.41;;;9.16;77.50
78623;BME280;67943;54.412;9.502;2024-03-22T18:21:18;100868.09;;;9.20;77.00
78623;BME280;67943;54.412;9.502;2024-03-22T18:26:19;100868.00;;;9.25;76.57
78623;BME280;67943;54.412;9.502;2024-03-22T18:31:23;100867.88;;;9.32;76.24
78623;BME280;67943;54.412;9.502;2024-03-22T18:36:23;100868.75;;;9.33;75.93
78623;BME280;67943;54.412;9.502;2024-03-22T18:41:24;100870.56;;;9.29;76.40
78623;BME280;67943;54.412;9.502;2024-03-22T18:46:27;100871.41;;;9.31;76.26
78623;BME280;67943;54.412;9.502;2024-03-22T18:51:28;100874.94;;;9.29;75.68
78623;BME280;67943;54.412;9.502;2024-03-22T18:56:29;100867.97;;;9.26;75.85
78623;BME280;67943;54.412;9.502;2024-03-22T19:01:32;100861.03;;;9.24;75.64
78623;BME280;67943;54.412;9.502;2024-03-22T19:06:33;100869.66;;;9.30;75.51
78623;BME280;67943;54.412;9.502;2024-03-22T19:11:34;100864.41;;;9.30;75.14
78623;BME280;67943;54.412;9.502;2024-03-22T19:16:37;100851.34;;;9.27;75.59
78623;BME280;67943;54.412;9.502;2024-03-22T19:21:38;100846.22;;;9.20;75.82
78623;BME280;67943;54.412;9.502;2024-03-22T19:26:39;100847.09;;;9.20;75.71
78623;BME280;67943;54.412;9.502;2024-03-22T19:31:42;100834.94;;;9.13;76.05
78623;BME280;67943;54.412;9.502;2024-03-22T19:36:43;100824.41;;;9.16;75.62
78623;BME280;67943;54.412;9.502;2024-03-22T19:41:43;100825.41;;;9.07;75.78
78623;BME280;67943;54.412;9.502;2024-03-22T19:46:46;100831.75;;;8.93;76.17
78623;BME280;67943;54.412;9.502;2024-03-22T19:51:47;100815.25;;;8.83;76.79
78623;BME280;67943;54.412;9.502;2024-03-22T19:56:48;100823.81;;;8.96;76.20
78623;BME280;67943;54.412;9.502;2024-03-22T20:01:51;100823.75;;;8.99;75.98
78623;BME280;67943;54.412;9.502;2024-03-22T20:06:52;100829.97;;;8.95;75.79
78623;BME280;67943;54.412;9.502;2024-03-22T20:11:53;100831.66;;;8.97;75.60
78623;BME280;67943;54.412;9.502;2024-03-22T20:16:56;100833.53;;;8.91;75.82
78623;BME280;67943;54.412;9.502;2024-03-22T20:21:57;100826.72;;;8.76;76.29
78623;BME280;67943;54.412;9.502;2024-03-22T20:26:58;100830.06;;;8.89;75.67
78623;BME280;67943;54.412;9.502;2024-03-22T20:32:01;100810.97;;;8.77;75.76
